Time;durP1;ratioP1;P1;durP2;ratioP2;P2;SDS_P1;SDS_P2;PMS_P1;PMS_P2;Temp;Humidity;BMP_temperature;BMP_pressure;BME280_temperature;BME280_humidity;BME280_pressure;Samples;Min_cycle;Max_cycle;Signal;HPM_P1;HPM_P2
2023/11/22 00:01:36;;;;;;;4.88;3.10;;;4.70;99.90;;;;;;5037565;28;20370;-77
2023/11/22 00:04:22;;;;;;;9.25;3.28;;;4.80;99.90;;;;;;5025276;28;20045;-76
2023/11/22 00:07:09;;;;;;;6.25;3.17;;;4.80;99.90;;;;;;5016855;28;20046;-77
2023/11/22 00:09:56;;;;;;;6.75;3.05;;;4.70;99.90;;;;;;5032906;28;20477;-77
2023/11/22 00:12:42;;;;;;;7.60;3.40;;;4.70;99.90;;;;;;5029779;28;20037;-77
2023/11/22 00:15:29;;;;;;;5.68;3.03;;;4.80;99.90;;;;;;5034273;28;20045;-77
2023/11/22 00:18:15;;;;;;;8.00;3.30;;;4.70;99.90;;;;;;5049459;28;20036;-77
2023/11/22 00:21:03;;;;;;;6.35;3.05;;;4.70;99.90;;;;;;5042198;28;20048;-77
2023/11/22 00:23:49;;;;;;;6.25;3.42;;;4.70;99.90;;;;;;5008362;28;20049;-77
2023/11/22 00:26:35;;;;;;;6.55;3.17;;;4.80;99.90;;;;;;5035114;28;20041;-77
2023/11/22 00:29:21;;;;;;;7.80;3.70;;;4.70;99.90;;;;;;5043088;28;20038;-76
2023/11/22 00:32:09;;;;;;;6.65;3.60;;;4.70;99.90;;;;;;5018344;28;20057;-77
2023/11/22 00:34:55;;;;;;;12.15;4.45;;;4.80;99.90;;;;;;5021339;28;20042;-77
2023/11/22 00:37:41;;;;;;;5.30;3.30;;;4.80;99.90;;;;;;5021569;28;20037;-77
2023/11/22 00:40:28;;;;;;;8.25;3.55;;;4.70;99.90;;;;;;5028939;28;20040;-77
2023/11/22 00:43:14;;;;;;;9.10;3.85;;;4.70;99.90;;;;;;5066595;28;20052;-77
2023/11/22 00:46:01;;;;;;;7.65;3.40;;;4.70;99.90;;;;;;5034418;28;20080;-77
2023/11/22 00:48:47;;;;;;;6.90;3.38;;;4.70;99.90;;;;;;5035310;28;20041;-77
2023/11/22 00:51:34;;;;;;;6.32;3.13;;;4.70;99.90;;;;;;5042003;28;20156;-76
2023/11/22 00:54:21;;;;;;;4.90;3.10;;;4.70;99.90;;;;;;5034167;28;20038;-76
2023/11/22 00:57:08;;;;;;;6.60;2.97;;;4.70;99.90;;;;;;5055452;28;20037;-76
2023/11/22 00:59:55;;;;;;;5.53;3.28;;;4.70;99.90;;;;;;5040741;28;20033;-77
2023/11/22 01:02:41;;;;;;;5.88;2.65;;;4.70;99.90;;;;;;5019875;28;20041;-76
2023/11/22 01:05:29;;;;;;;5.68;3.15;;;4.70;99.90;;;;;;5044504;28;20048;-76
2023/11/22 01:08:16;;;;;;;6.75;2.97;;;4.70;99.90;;;;;;5023105;28;20037;-77
2023/11/22 01:11:04;;;;;;;5.60;3.20;;;4.70;99.90;;;;;;5039035;28;20070;-76
2023/11/22 01:13:51;;;;;;;5.60;2.80;;;4.70;99.90;;;;;;5037302;28;20608;-76
2023/11/22 01:16:37;;;;;;;6.00;2.63;;;4.70;99.90;;;;;;5044129;28;20044;-76
2023/11/22 01:19:26;;;;;;;5.55;2.90;;;4.70;99.90;;;;;;5013765;28;20131;-76
2023/11/22 01:22:12;;;;;;;6.25;2.88;;;4.70;99.90;;;;;;5031024;28;20062;-77
2023/11/22 01:24:58;;;;;;;5.80;2.85;;;4.70;99.90;;;;;;5031683;28;20042;-77
2023/11/22 01:27:44;;;;;;;5.78;2.85;;;4.70;99.90;;;;;;5016252;28;20037;-77
2023/11/22 01:30:30;;;;;;;5.75;3.25;;;4.60;99.90;;;;;;5038331;28;20119;-77
2023/11/22 01:33:16;;;;;;;4.97;3.03;;;4.60;99.90;;;;;;5057083;28;20146;-77
2023/11/22 01:36:03;;;;;;;4.60;2.78;;;4.60;99.90;;;;;;5039517;28;20037;-77
2023/11/22 01:38:50;;;;;;;5.05;2.90;;;4.60;99.90;;;;;;5038990;28;20033;-77
2023/11/22 01:41:36;;;;;;;5.15;3.08;;;4.50;99.90;;;;;;5047670;28;20049;-77
2023/11/22 01:44:23;;;;;;;4.25;2.58;;;4.50;99.90;;;;;;5049023;28;20426;-77
2023/11/22 01:47:09;;;;;;;5.82;2.97;;;4.40;99.90;;;;;;5061513;28;20045;-77
2023/11/22 01:49:57;;;;;;;6.90;3.00;;;4.40;99.90;;;;;;5010647;28;20148;-77
2023/11/22 01:52:43;;;;;;;5.60;2.80;;;4.40;99.90;;;;;;5007790;28;20374;-77
2023/11/22 01:55:30;;;;;;;6.63;3.10;;;4.30;99.90;;;;;;5053901;28;20300;-77
2023/11/22 01:58:17;;;;;;;6.68;2.88;;;4.30;99.90;;;;;;5047186;28;20091;-77
2023/11/22 02:01:04;;;;;;;4.97;2.95;;;4.20;99.90;;;;;;5040891;28;20542;-77
2023/11/22 02:03:52;;;;;;;4.60;3.20;;;4.20;99.90;;;;;;5044481;28;20041;-77
2023/11/22 02:06:39;;;;;;;7.20;2.83;;;4.10;99.90;;;;;;5015782;28;20104;-77
2023/11/22 02:09:26;;;;;;;7.97;3.13;;;4.10;99.90;;;;;;5019300;28;20098;-77
2023/11/22 02:12:14;;;;;;;5.03;2.85;;;4.00;99.90;;;;;;5002917;28;20053;-77
2023/11/22 02:15:02;;;;;;;6.35;2.95;;;4.00;99.90;;;;;;5025436;28;20121;-77
2023/11/22 02:17:50;;;;;;;4.63;2.95;;;3.90;99.90;;;;;;5048258;28;20033;-77
2023/11/22 02:20:36;;;;;;;5.15;3.05;;;3.90;99.90;;;;;;5019079;28;20046;-77
2023/11/22 02:23:22;;;;;;;8.18;3.53;;;3.80;99.90;;;;;;5029157;28;20045;-77
2023/11/22 02:26:09;;;;;;;7.82;3.42;;;3.80;99.90;;;;;;5037667;28;20033;-77
2023/11/22 02:28:56;;;;;;;10.70;3.20;;;3.80;99.90;;;;;;5000348;28;20048;-76
2023/11/22 02:31:43;;;;;;;6.70;3.00;;;3.70;99.90;;;;;;5073097;28;20049;-77
2023/11/22 02:34:30;;;;;;;5.55;2.80;;;3.70;99.90;;;;;;5039585;28;20119;-77
2023/11/22 02:37:16;;;;;;;4.68;2.22;;;3.70;99.90;;;;;;5003588;28;20478;-77
2023/11/22 02:40:20;;;;;;;7.03;3.53;;;3.70;99.90;;;;;;5022725;28;20111;-76
2023/11/22 02:43:08;;;;;;;7.72;3.22;;;3.60;99.90;;;;;;5042616;28;20327;-76
2023/11/22 02:45:56;;;;;;;6.03;3.42;;;3.60;99.90;;;;;;5053306;28;20040;-76
2023/11/22 02:48:42;;;;;;;5.32;3.03;;;3.60;99.90;;;;;;5041587;28;20033;-76
2023/11/22 02:51:28;;;;;;;10.00;4.28;;;3.50;99.90;;;;;;5045276;28;20049;-76
2023/11/22 02:54:14;;;;;;;9.00;3.20;;;3.50;99.90;;;;;;5043619;28;20041;-75
2023/11/22 02:57:00;;;;;;;6.95;3.22;;;3.50;99.90;;;;;;5048909;28;20033;-76
2023/11/22 02:59:46;;;;;;;5.72;3.13;;;3.40;99.90;;;;;;5020371;28;20048;-76
2023/11/22 03:02:37;;;;;;;6.07;2.72;;;3.40;99.90;;;;;;5056241;28;20052;-76
2023/11/22 03:05:24;;;;;;;7.65;3.15;;;3.40;99.90;;;;;;5036280;28;20107;-76
2023/11/22 03:08:10;;;;;;;8.88;2.92;;;3.40;99.90;;;;;;5028935;28;20044;-76
2023/11/22 03:10:57;;;;;;;7.10;3.17;;;3.40;99.90;;;;;;5018177;28;20041;-76
2023/11/22 03:13:43;;;;;;;5.93;2.80;;;3.30;99.90;;;;;;5031313;28;20029;-76
2023/11/22 03:16:31;;;;;;;5.72;2.97;;;3.30;99.90;;;;;;5066671;28;20120;-76
2023/11/22 03:19:19;;;;;;;8.25;3.20;;;3.30;99.90;;;;;;5042727;28;20346;-76
2023/11/22 03:22:06;;;;;;;5.32;3.15;;;3.30;99.90;;;;;;5025194;28;20455;-76
2023/11/22 03:24:52;;;;;;;8.02;3.30;;;3.30;99.90;;;;;;5025424;28;20037;-76
2023/11/22 03:27:39;;;;;;;6.63;2.95;;;3.20;99.90;;;;;;5037658;28;20033;-76
2023/11/22 03:30:25;;;;;;;4.83;2.83;;;3.20;99.90;;;;;;5051234;28;20053;-76
2023/11/22 03:33:11;;;;;;;7.15;2.95;;;3.20;99.90;;;;;;5039787;28;20038;-76
2023/11/22 03:35:59;;;;;;;5.40;2.83;;;3.10;99.90;;;;;;5038557;28;20506;-76
2023/11/22 03:38:45;;;;;;;4.97;2.83;;;3.10;99.90;;;;;;5038585;28;20462;-76
2023/11/22 03:41:32;;;;;;;6.10;3.13;;;3.00;99.90;;;;;;5050685;28;20067;-76
2023/11/22 03:44:18;;;;;;;6.97;3.10;;;3.00;99.90;;;;;;5044639;28;20046;-76
2023/11/22 03:47:04;;;;;;;6.07;3.40;;;2.90;99.90;;;;;;5060052;28;20049;-76
2023/11/22 03:49:50;;;;;;;7.78;2.90;;;2.90;99.90;;;;;;5037517;28;20076;-76
2023/11/22 03:52:36;;;;;;;8.15;3.30;;;2.90;99.90;;;;;;5055618;28;20059;-76
2023/11/22 03:55:24;;;;;;;7.88;2.80;;;2.90;99.90;;;;;;5018375;28;20040;-76
2023/11/22 03:58:10;;;;;;;5.07;2.67;;;2.90;99.90;;;;;;5039991;28;20029;-76
2023/11/22 04:00:58;;;;;;;6.03;2.53;;;2.80;99.90;;;;;;5038534;28;20056;-76
2023/11/22 04:03:48;;;;;;;5.35;3.05;;;2.80;99.90;;;;;;5049271;28;20044;-76
2023/11/22 04:06:34;;;;;;;4.70;2.83;;;2.80;99.90;;;;;;5041017;28;20056;-76
2023/11/22 04:09:20;;;;;;;8.77;3.05;;;2.80;99.90;;;;;;5037204;28;20033;-76
2023/11/22 04:12:08;;;;;;;5.20;2.90;;;2.70;99.90;;;;;;5022990;28;20073;-76
2023/11/22 04:14:54;;;;;;;5.85;2.78;;;2.70;99.90;;;;;;5076946;28;20040;-76
2023/11/22 04:17:41;;;;;;;7.03;2.70;;;2.70;99.90;;;;;;5009291;28;20404;-76
2023/11/22 04:20:30;;;;;;;5.28;2.80;;;2.70;99.90;;;;;;5051037;28;20029;-76
2023/11/22 04:23:17;;;;;;;5.15;2.95;;;2.60;99.90;;;;;;5062208;28;20040;-76
2023/11/22 04:26:03;;;;;;;6.90;3.00;;;2.60;99.90;;;;;;5030722;28;20037;-76
2023/11/22 04:28:49;;;;;;;5.97;3.08;;;2.60;99.90;;;;;;5043215;28;20038;-76
2023/11/22 04:31:37;;;;;;;5.18;2.55;;;2.60;99.90;;;;;;5033632;28;20050;-76
2023/11/22 04:34:24;;;;;;;4.72;2.90;;;2.60;99.90;;;;;;5023287;28;20041;-76
2023/11/22 04:37:10;;;;;;;7.20;3.00;;;2.60;99.90;;;;;;5037245;28;20036;-76
2023/11/22 04:39:56;;;;;;;6.15;2.92;;;2.60;99.90;;;;;;5075926;28;20359;-76
2023/11/22 04:42:44;;;;;;;5.00;2.83;;;2.60;99.90;;;;;;5050539;28;20114;-76
2023/11/22 04:45:30;;;;;;;4.95;2.63;;;2.50;99.90;;;;;;5024843;28;20525;-76
2023/11/22 04:48:16;;;;;;;4.95;2.80;;;2.50;99.90;;;;;;5006290;28;20505;-76
2023/11/22 04:51:05;;;;;;;4.07;2.25;;;2.50;99.90;;;;;;5063164;28;20041;-76
2023/11/22 04:53:52;;;;;;;4.18;2.72;;;2.40;99.90;;;;;;5027347;28;20034;-76
2023/11/22 04:56:39;;;;;;;5.07;3.03;;;2.50;99.90;;;;;;5036213;28;20052;-76
2023/11/22 04:59:25;;;;;;;6.18;2.70;;;2.40;99.90;;;;;;5028759;28;20033;-76
2023/11/22 05:02:11;;;;;;;6.30;2.53;;;2.40;99.90;;;;;;5054769;28;20072;-75
2023/11/22 05:05:00;;;;;;;4.85;2.67;;;2.40;99.90;;;;;;5029167;28;20051;-76
2023/11/22 05:07:47;;;;;;;7.78;2.72;;;2.40;99.90;;;;;;5015666;28;20441;-76
2023/11/22 05:10:36;;;;;;;8.00;2.97;;;2.40;99.90;;;;;;5029548;28;20473;-76
2023/11/22 05:13:22;;;;;;;4.80;2.88;;;2.40;99.90;;;;;;5027779;28;20060;-76
2023/11/22 05:16:09;;;;;;;6.32;2.72;;;2.40;99.90;;;;;;5051922;28;20041;-76
2023/11/22 05:18:57;;;;;;;5.75;3.10;;;2.30;99.90;;;;;;5024372;28;20083;-76
2023/11/22 05:21:44;;;;;;;6.13;3.20;;;2.30;99.90;;;;;;5033455;28;20049;-76
2023/11/22 05:24:32;;;;;;;5.78;2.70;;;2.30;99.90;;;;;;5034711;28;20038;-76
2023/11/22 05:27:18;;;;;;;5.20;3.00;;;2.30;99.90;;;;;;5042525;28;20561;-76
2023/11/22 05:30:04;;;;;;;6.72;3.35;;;2.30;99.90;;;;;;5038496;28;20436;-76
2023/11/22 05:32:52;;;;;;;5.40;3.00;;;2.30;99.90;;;;;;5045189;28;20473;-76
2023/11/22 05:35:40;;;;;;;7.53;2.97;;;2.30;99.90;;;;;;5023477;28;20042;-76
2023/11/22 05:38:28;;;;;;;6.50;3.22;;;2.30;99.90;;;;;;5052854;28;20470;-76
2023/11/22 05:41:16;;;;;;;4.47;2.93;;;2.20;99.90;;;;;;5032545;28;20041;-76
2023/11/22 05:44:03;;;;;;;6.32;2.97;;;2.20;99.90;;;;;;5018309;28;20042;-75
2023/11/22 05:46:51;;;;;;;4.10;2.40;;;2.20;99.90;;;;;;5015506;28;20133;-76
2023/11/22 05:49:38;;;;;;;8.32;2.83;;;2.20;99.90;;;;;;5059642;28;20124;-76
2023/11/22 05:52:25;;;;;;;5.93;3.17;;;2.10;99.90;;;;;;5021615;28;20068;-76
2023/11/22 05:55:13;;;;;;;4.80;3.03;;;2.10;99.90;;;;;;5060640;28;20376;-76
2023/11/22 05:58:01;;;;;;;6.70;2.97;;;2.10;99.90;;;;;;5053652;28;20470;-76
2023/11/22 06:00:47;;;;;;;8.82;3.33;;;2.10;99.90;;;;;;5047943;28;20045;-76
2023/11/22 06:03:34;;;;;;;5.88;3.17;;;2.10;99.90;;;;;;5015959;28;20098;-76
2023/11/22 06:06:21;;;;;;;5.20;2.90;;;2.00;99.90;;;;;;5000189;28;20042;-76
2023/11/22 06:09:10;;;;;;;5.63;2.80;;;2.00;99.90;;;;;;5045815;28;20077;-76
2023/11/22 06:11:56;;;;;;;6.68;3.33;;;2.00;99.90;;;;;;5015799;28;20050;-74
2023/11/22 06:14:43;;;;;;;6.82;3.00;;;2.00;99.90;;;;;;5032640;28;20108;-76
2023/11/22 06:17:30;;;;;;;6.60;2.72;;;2.00;99.90;;;;;;5042614;28;20037;-75
2023/11/22 06:20:16;;;;;;;6.55;2.95;;;2.00;99.90;;;;;;5056691;28;20034;-75
2023/11/22 06:23:04;;;;;;;4.97;2.92;;;1.90;99.90;;;;;;5051984;28;20037;-78
2023/11/22 06:25:51;;;;;;;6.72;3.28;;;1.90;99.90;;;;;;5048330;28;20033;-78
2023/11/22 06:28:39;;;;;;;5.32;2.90;;;1.80;99.90;;;;;;5062440;28;20043;-78
2023/11/22 06:31:26;;;;;;;5.93;3.22;;;1.90;99.90;;;;;;5014049;28;20045;-78
2023/11/22 06:34:14;;;;;;;8.45;3.65;;;1.80;99.90;;;;;;5039255;28;20044;-77
2023/11/22 06:37:00;;;;;;;7.03;3.22;;;1.80;99.90;;;;;;5042097;28;20036;-78
2023/11/22 06:39:46;;;;;;;8.93;3.38;;;1.80;99.90;;;;;;5039395;28;20041;-77
2023/11/22 06:42:33;;;;;;;5.82;3.28;;;1.80;99.90;;;;;;5032410;28;20049;-77
2023/11/22 06:45:21;;;;;;;7.30;3.08;;;1.80;99.90;;;;;;5024581;28;20047;-77
2023/11/22 06:48:07;;;;;;;6.28;3.20;;;1.70;99.90;;;;;;5027517;28;20136;-76
2023/11/22 06:50:54;;;;;;;7.30;3.60;;;1.80;99.90;;;;;;5053957;28;20055;-76
2023/11/22 06:53:40;;;;;;;7.60;3.45;;;1.80;99.90;;;;;;5030115;28;20030;-77
2023/11/22 06:56:26;;;;;;;4.78;2.90;;;1.80;99.90;;;;;;5058759;28;20037;-76
2023/11/22 06:59:13;;;;;;;6.40;3.47;;;1.80;99.90;;;;;;5015789;28;20037;-77
2023/11/22 07:02:00;;;;;;;7.35;3.20;;;1.90;99.90;;;;;;5021606;28;20038;-77
2023/11/22 07:04:46;;;;;;;6.32;3.38;;;1.90;99.90;;;;;;5029806;28;20048;-77
2023/11/22 07:07:37;;;;;;;6.47;3.78;;;1.90;99.90;;;;;;5028415;28;20042;-77
2023/11/22 07:10:24;;;;;;;9.15;3.88;;;1.90;99.90;;;;;;5028880;28;20049;-77
2023/11/22 07:13:12;;;;;;;7.30;3.05;;;1.90;99.90;;;;;;5030341;28;20045;-77
2023/11/22 07:16:00;;;;;;;;;;;1.90;99.90;;;;;;5070548;28;20335;-77
2023/11/22 07:18:46;;;;;;;6.75;3.33;;;2.00;99.90;;;;;;5029566;28;19909;-77
2023/11/22 07:21:32;;;;;;;4.82;2.75;;;1.90;99.90;;;;;;5039260;28;20621;-77
2023/11/22 07:24:18;;;;;;;8.57;3.42;;;2.00;99.90;;;;;;5008025;28;20365;-76
2023/11/22 07:27:04;;;;;;;13.52;7.93;;;2.00;99.90;;;;;;5035697;28;20513;-77
2023/11/22 07:29:52;;;;;;;27.33;19.05;;;2.00;99.90;;;;;;5041742;28;20053;-77
2023/11/22 07:32:40;;;;;;;55.25;39.22;;;2.00;99.90;;;;;;5042792;28;20076;-77
2023/11/22 07:35:28;;;;;;;;;;;2.00;99.90;;;;;;5070118;28;20037;-77
2023/11/22 07:38:17;;;;;;;68.25;47.88;;;2.10;99.90;;;;;;5046425;28;19967;-76
2023/11/22 07:41:03;;;;;;;29.65;21.83;;;2.10;99.90;;;;;;5074526;28;20114;-76
2023/11/22 07:43:49;;;;;;;23.13;17.10;;;2.10;99.90;;;;;;5044033;28;20065;-77
2023/11/22 07:46:37;;;;;;;17.05;12.70;;;2.20;99.90;;;;;;5039587;28;20038;-76
2023/11/22 07:49:23;;;;;;;16.40;11.30;;;2.20;99.90;;;;;;5046827;28;20036;-76
2023/11/22 07:52:13;;;;;;;10.05;6.82;;;2.20;99.90;;;;;;5053779;28;20084;-77
2023/11/22 07:55:00;;;;;;;14.90;10.82;;;2.30;99.90;;;;;;5028458;28;20033;-76
2023/11/22 07:57:49;;;;;;;16.02;9.98;;;2.30;99.90;;;;;;5029292;28;20086;-76
2023/11/22 08:00:41;;;;;;;;;;;2.30;99.90;;;;;;5043228;28;20033;-75
2023/11/22 08:03:29;;;;;;;11.40;7.28;;;2.30;99.90;;;;;;5030352;28;20433;-76
2023/11/22 08:06:16;;;;;;;18.70;9.93;;;2.30;99.90;;;;;;5051141;28;20125;-76
2023/11/22 08:09:04;;;;;;;18.90;11.97;;;2.40;99.90;;;;;;5034146;28;20120;-74
2023/11/22 08:11:52;;;;;;;16.25;11.77;;;2.40;99.90;;;;;;5048203;28;20048;-75
2023/11/22 08:14:40;;;;;;;;;;;2.40;99.90;;;;;;5040255;28;20037;-76
2023/11/22 08:17:27;;;;;;;9.15;6.47;;;2.40;99.90;;;;;;5028220;28;20334;-75
2023/11/22 08:20:17;;;;;;;12.23;5.60;;;2.50;99.90;;;;;;5038824;28;20116;-77
2023/11/22 08:23:06;;;;;;;11.68;6.25;;;2.50;99.90;;;;;;5030965;28;20041;-77
2023/11/22 08:25:52;;;;;;;12.07;5.70;;;2.40;99.90;;;;;;5034837;28;20068;-76
2023/11/22 08:28:40;;;;;;;14.00;5.47;;;2.40;99.90;;;;;;5050341;28;20505;-75
2023/11/22 08:31:26;;;;;;;10.52;6.55;;;2.50;99.90;;;;;;5055204;28;20060;-76
2023/11/22 08:34:12;;;;;;;17.63;8.93;;;2.50;99.90;;;;;;5037580;28;20064;-76
2023/11/22 08:36:59;;;;;;;12.30;6.70;;;2.60;99.90;;;;;;5040186;28;20037;-76
2023/11/22 08:39:45;;;;;;;12.13;6.32;;;2.60;99.90;;;;;;5043438;28;20123;-76
2023/11/22 08:42:31;;;;;;;13.18;6.95;;;2.60;99.90;;;;;;5047956;28;20443;-76
2023/11/22 08:45:17;;;;;;;13.38;8.15;;;2.60;99.90;;;;;;5044820;28;20045;-75
2023/11/22 08:48:04;;;;;;;12.43;6.28;;;2.70;99.90;;;;;;5010532;28;20056;-76
2023/11/22 08:50:53;;;;;;;12.10;7.15;;;2.70;99.90;;;;;;5023711;28;20053;-76
2023/11/22 08:53:40;;;;;;;19.98;11.48;;;2.70;99.90;;;;;;5027595;28;20102;-75
2023/11/22 08:56:26;;;;;;;16.88;9.40;;;2.70;99.90;;;;;;5042444;28;20103;-76
2023/11/22 08:59:13;;;;;;;12.68;7.53;;;2.80;99.90;;;;;;5040495;28;20037;-75
2023/11/22 09:01:58;;;;;;;16.55;9.82;;;2.80;99.90;;;;;;5045751;28;20033;-74
2023/11/22 09:04:44;;;;;;;12.50;7.28;;;2.80;99.90;;;;;;5043650;28;20355;-77
2023/11/22 09:07:34;;;;;;;15.30;8.48;;;2.90;99.90;;;;;;5017460;28;20075;-76
2023/11/22 09:10:21;;;;;;;14.32;8.10;;;2.90;99.90;;;;;;5030269;28;20143;-76
2023/11/22 09:13:11;;;;;;;13.18;8.27;;;3.00;99.90;;;;;;5071939;28;20480;-76
2023/11/22 09:15:58;;;;;;;14.48;8.90;;;3.00;99.90;;;;;;5046011;28;20048;-76
2023/11/22 09:18:44;;;;;;;12.93;8.18;;;3.10;99.90;;;;;;5041135;28;20548;-76
2023/11/22 09:21:30;;;;;;;14.02;6.88;;;3.10;99.90;;;;;;5035852;28;20107;-76
2023/11/22 09:24:16;;;;;;;14.13;7.60;;;3.10;99.90;;;;;;5002136;28;20045;-76
2023/11/22 09:27:05;;;;;;;10.63;6.65;;;3.20;99.90;;;;;;5040971;28;20481;-76
2023/11/22 09:29:51;;;;;;;10.73;6.28;;;3.20;99.90;;;;;;5055022;28;20789;-76
2023/11/22 09:32:38;;;;;;;10.38;6.30;;;3.30;99.90;;;;;;5036247;28;20056;-76
2023/11/22 09:35:24;;;;;;;11.90;7.10;;;3.40;99.90;;;;;;5071587;28;20041;-75
2023/11/22 09:38:12;;;;;;;8.88;5.68;;;3.40;99.90;;;;;;5060697;28;20059;-75
2023/11/22 09:40:59;;;;;;;10.80;6.72;;;3.40;99.90;;;;;;5034381;28;20043;-75
2023/11/22 09:43:49;;;;;;;13.57;7.07;;;3.50;99.90;;;;;;5049229;28;20068;-75
2023/11/22 09:46:37;;;;;;;11.50;6.93;;;3.60;99.90;;;;;;5068359;28;20043;-74
2023/11/22 09:49:25;;;;;;;10.43;6.30;;;3.60;99.90;;;;;;5046004;28;20040;-75
2023/11/22 09:52:13;;;;;;;11.02;5.60;;;3.60;99.90;;;;;;5037111;28;20118;-74
2023/11/22 09:55:02;;;;;;;12.57;7.32;;;3.70;99.90;;;;;;5035478;28;20041;-75
2023/11/22 09:57:48;;;;;;;;;;;3.70;99.90;;;;;;5029726;28;20037;-75
2023/11/22 10:00:34;;;;;;;10.20;5.32;;;3.70;99.90;;;;;;5070930;28;19916;-75
2023/11/22 10:03:23;;;;;;;8.95;5.45;;;3.80;99.90;;;;;;5040202;28;20064;-75
2023/11/22 10:06:09;;;;;;;10.27;6.18;;;3.70;99.90;;;;;;5063675;28;20065;-75
2023/11/22 10:08:56;;;;;;;10.70;5.47;;;3.70;99.90;;;;;;5031028;28;20172;-75
2023/11/22 10:11:43;;;;;;;11.15;6.05;;;3.80;99.90;;;;;;5029926;28;20033;-75
2023/11/22 10:14:30;;;;;;;9.85;5.93;;;3.80;99.90;;;;;;5050924;28;20044;-74
2023/11/22 10:17:16;;;;;;;10.85;5.22;;;3.60;99.90;;;;;;5020600;28;20041;-75
2023/11/22 10:20:03;;;;;;;10.07;5.72;;;3.70;99.90;;;;;;5030866;28;20037;-74
2023/11/22 10:22:49;;;;;;;11.43;6.13;;;3.50;99.90;;;;;;5075058;28;20041;-75
2023/11/22 10:25:52;;;;;;;10.43;5.40;;;3.60;99.90;;;;;;5044139;28;20037;-75
2023/11/22 10:28:38;;;;;;;9.13;5.20;;;3.60;99.90;;;;;;5025337;28;20144;-77
2023/11/22 10:31:24;;;;;;;12.05;6.22;;;3.60;99.90;;;;;;5028599;28;20053;-74
2023/11/22 10:34:11;;;;;;;9.35;5.20;;;3.60;99.90;;;;;;5030701;28;20051;-77
2023/11/22 10:36:57;;;;;;;9.30;5.38;;;3.60;99.90;;;;;;5054618;28;20556;-77
2023/11/22 10:39:45;;;;;;;8.93;5.60;;;3.60;99.90;;;;;;5052150;28;20037;-77
2023/11/22 10:42:35;;;;;;;9.20;5.60;;;3.70;99.90;;;;;;5004078;28;20429;-77
2023/11/22 10:45:22;;;;;;;9.93;5.72;;;3.90;99.90;;;;;;5038835;28;20079;-75
2023/11/22 10:48:11;;;;;;;9.10;5.07;;;3.90;99.90;;;;;;5027103;28;20127;-75
2023/11/22 10:50:57;;;;;;;9.18;5.03;;;4.00;99.90;;;;;;5048830;28;20040;-77
2023/11/22 10:53:49;;;;;;;9.45;5.60;;;4.20;99.90;;;;;;5031908;28;20043;-77
2023/11/22 10:56:45;;;;;;;11.50;5.35;;;4.60;99.90;;;;;;5036926;28;20052;-75
2023/11/22 10:59:31;;;;;;;9.85;5.85;;;5.10;99.90;;;;;;5020857;28;20366;-75
2023/11/22 11:02:18;;;;;;;11.07;6.50;;;5.50;99.90;;;;;;5040882;28;20055;-77
2023/11/22 11:05:15;;;;;;;8.15;5.07;;;5.60;99.90;;;;;;5034976;28;20051;-75
2023/11/22 11:08:12;;;;;;;8.98;6.00;;;5.50;99.90;;;;;;5047353;28;20045;-77
2023/11/22 11:10:59;;;;;;;11.55;5.95;;;5.60;99.90;;;;;;5030813;28;20053;-77
2023/11/22 11:13:47;;;;;;;10.02;5.63;;;5.90;99.90;;;;;;5054090;28;20364;-76
2023/11/22 11:16:37;;;;;;;11.20;6.03;;;5.90;99.90;;;;;;5028618;28;20057;-78
2023/11/22 11:19:25;;;;;;;10.07;5.93;;;5.60;99.90;;;;;;5049899;28;20379;-75
2023/11/22 11:22:11;;;;;;;9.10;5.80;;;5.60;99.90;;;;;;5031368;28;20072;-77
2023/11/22 11:25:03;;;;;;;10.50;5.75;;;5.50;99.90;;;;;;5046539;28;20116;-78
2023/11/22 11:27:58;;;;;;;10.93;5.68;;;5.50;99.90;;;;;;5055733;28;20033;-78
2023/11/22 11:30:50;;;;;;;10.55;6.00;;;5.50;99.90;;;;;;5049577;28;20081;-75
2023/11/22 11:33:53;;;;;;;10.07;5.40;;;5.30;99.90;;;;;;5044848;28;20038;-77
2023/11/22 11:36:41;;;;;;;10.00;5.40;;;5.30;99.90;;;;;;5036448;28;20033;-77
2023/11/22 11:39:31;;;;;;;9.77;5.53;;;5.20;99.90;;;;;;5050410;28;20033;-75
2023/11/22 11:42:18;;;;;;;10.40;5.65;;;5.20;99.90;;;;;;5020437;28;20052;-77
2023/11/22 11:45:06;;;;;;;9.88;5.50;;;5.60;99.90;;;;;;5036423;28;20104;-76
2023/11/22 11:47:52;;;;;;;8.73;5.25;;;5.80;99.90;;;;;;5029121;28;20045;-76
2023/11/22 11:50:39;;;;;;;10.50;5.60;;;5.60;99.90;;;;;;5042068;28;20178;-76
2023/11/22 11:53:26;;;;;;;10.33;6.17;;;5.80;99.90;;;;;;5019003;28;20049;-76
2023/11/22 11:56:12;;;;;;;9.80;5.60;;;5.80;99.90;;;;;;5048883;28;20044;-76
2023/11/22 11:58:59;;;;;;;10.30;5.50;;;5.50;99.90;;;;;;5050187;28;20131;-76
2023/11/22 12:01:45;;;;;;;12.00;6.03;;;5.70;99.90;;;;;;5041693;28;20129;-76
2023/11/22 12:04:32;;;;;;;9.02;5.40;;;5.80;99.90;;;;;;5058011;28;20044;-76
2023/11/22 12:07:20;;;;;;;9.60;5.47;;;5.80;99.90;;;;;;5028494;28;20034;-74
2023/11/22 12:10:06;;;;;;;10.48;5.72;;;5.80;99.90;;;;;;5055442;28;20059;-74
2023/11/22 12:12:52;;;;;;;10.35;6.03;;;5.70;99.90;;;;;;5032596;28;20064;-76
2023/11/22 12:15:40;;;;;;;9.57;5.15;;;5.50;99.90;;;;;;5025435;28;20530;-76
2023/11/22 12:18:26;;;;;;;9.38;5.35;;;5.60;99.90;;;;;;5044726;28;20041;-76
2023/11/22 12:21:15;;;;;;;9.50;5.22;;;5.80;99.90;;;;;;5039273;28;20032;-75
2023/11/22 12:24:02;;;;;;;8.27;4.88;;;5.70;99.90;;;;;;5025730;28;20036;-74
2023/11/22 12:26:50;;;;;;;9.57;4.45;;;5.50;99.90;;;;;;5044605;28;20478;-74
2023/11/22 12:29:37;;;;;;;7.60;4.70;;;5.70;99.90;;;;;;5045501;28;20342;-74
2023/11/22 12:32:25;;;;;;;9.50;5.18;;;5.80;99.90;;;;;;5041428;28;20062;-74
2023/11/22 12:35:11;;;;;;;8.88;4.90;;;6.10;99.90;;;;;;5057010;28;20170;-74
2023/11/22 12:38:02;;;;;;;8.57;4.60;;;6.20;99.90;;;;;;5026990;28;20100;-75
2023/11/22 12:40:48;;;;;;;7.90;4.10;;;6.30;99.90;;;;;;4993479;28;20371;-75
2023/11/22 12:43:34;;;;;;;5.53;3.63;;;6.40;99.90;;;;;;5067292;28;20033;-76
2023/11/22 12:46:22;;;;;;;7.38;3.97;;;6.40;99.90;;;;;;5037907;28;20040;-76
2023/11/22 12:49:09;;;;;;;7.95;4.28;;;6.20;99.90;;;;;;5034121;28;20072;-76
2023/11/22 12:51:59;;;;;;;9.48;4.80;;;6.00;99.90;;;;;;5076860;28;20118;-74
2023/11/22 12:54:47;;;;;;;9.88;5.00;;;5.80;99.90;;;;;;5016176;28;20379;-74
2023/11/22 12:57:33;;;;;;;9.85;4.78;;;5.60;99.90;;;;;;5033262;28;20033;-74
2023/11/22 13:00:20;;;;;;;8.73;4.65;;;5.40;99.90;;;;;;5050508;28;20743;-75
2023/11/22 13:03:10;;;;;;;8.48;4.57;;;5.00;99.90;;;;;;5052794;28;20044;-75
2023/11/22 13:05:56;;;;;;;9.05;5.15;;;4.80;99.90;;;;;;5038107;28;20040;-75
2023/11/22 13:08:44;;;;;;;8.65;4.80;;;4.80;99.90;;;;;;5032575;28;20129;-75
2023/11/22 13:11:30;;;;;;;8.80;4.95;;;4.80;99.90;;;;;;5024907;28;20041;-74
2023/11/22 13:14:17;;;;;;;8.00;4.75;;;4.70;99.90;;;;;;5035581;28;20034;-74
2023/11/22 13:17:06;;;;;;;9.98;5.05;;;4.50;99.90;;;;;;5055945;28;20106;-75
2023/11/22 13:19:53;;;;;;;9.48;5.43;;;4.50;99.90;;;;;;5045673;28;20048;-75
2023/11/22 13:22:44;;;;;;;8.70;4.80;;;4.40;99.90;;;;;;5017469;28;20045;-75
2023/11/22 13:25:48;;;;;;;8.95;4.70;;;4.30;99.90;;;;;;5054958;28;20049;-75
2023/11/22 13:28:34;;;;;;;8.55;4.80;;;4.10;99.90;;;;;;5028306;28;20065;-74
2023/11/22 13:31:22;;;;;;;8.95;5.35;;;4.10;99.90;;;;;;5046178;28;20462;-74
2023/11/22 13:34:08;;;;;;;7.40;4.50;;;4.00;99.90;;;;;;5046587;28;20037;-74
2023/11/22 13:36:55;;;;;;;10.93;6.22;;;3.90;99.90;;;;;;5039011;28;20116;-75
2023/11/22 13:39:42;;;;;;;10.63;5.90;;;3.80;99.90;;;;;;5076782;28;20127;-75
2023/11/22 13:42:28;;;;;;;9.25;5.70;;;3.60;99.90;;;;;;5053369;28;20055;-76
2023/11/22 13:45:18;;;;;;;10.00;5.75;;;3.50;99.90;;;;;;5039043;28;20049;-74
2023/11/22 13:48:06;;;;;;;10.70;6.03;;;3.50;99.90;;;;;;5037881;28;20046;-74
2023/11/22 13:50:52;;;;;;;9.00;5.93;;;3.50;99.90;;;;;;5000977;28;20036;-75
2023/11/22 13:53:46;;;;;;;10.73;5.88;;;3.30;99.90;;;;;;5016383;28;20048;-75
2023/11/22 13:56:32;;;;;;;9.75;5.93;;;3.30;99.90;;;;;;5060416;28;20033;-75
2023/11/22 13:59:19;;;;;;;11.63;6.97;;;3.30;99.90;;;;;;5041446;28;20114;-75
2023/11/22 14:02:05;;;;;;;12.27;6.63;;;3.20;99.90;;;;;;5021722;28;20069;-75
2023/11/22 14:04:53;;;;;;;10.70;6.50;;;3.20;99.90;;;;;;5054192;28;20473;-75
2023/11/22 14:07:40;;;;;;;11.82;6.68;;;3.20;99.90;;;;;;5029092;28;20045;-75
2023/11/22 14:10:26;;;;;;;12.07;7.15;;;3.20;99.90;;;;;;5040792;28;20037;-75
2023/11/22 14:13:12;;;;;;;12.27;6.88;;;3.10;99.90;;;;;;5042731;28;20045;-76
2023/11/22 14:16:01;;;;;;;12.23;6.80;;;3.10;99.90;;;;;;5049839;28;20033;-76
2023/11/22 14:18:47;;;;;;;12.63;6.97;;;3.20;99.90;;;;;;5046974;28;20076;-76
2023/11/22 14:21:35;;;;;;;13.02;6.93;;;3.20;99.90;;;;;;5047053;28;20033;-77
2023/11/22 14:24:22;;;;;;;14.60;7.43;;;3.20;99.90;;;;;;5041987;28;20532;-75
2023/11/22 14:27:09;;;;;;;10.40;6.50;;;3.10;99.90;;;;;;5047741;28;20160;-77
2023/11/22 14:29:56;;;;;;;12.63;7.40;;;3.10;99.90;;;;;;5048705;28;20508;-77
2023/11/22 14:32:42;;;;;;;12.50;7.20;;;3.10;99.90;;;;;;5047341;28;20355;-77
2023/11/22 14:35:28;;;;;;;13.93;7.22;;;3.20;99.90;;;;;;5058240;28;20046;-77
2023/11/22 14:38:14;;;;;;;17.48;7.60;;;3.10;99.90;;;;;;5042163;28;20101;-77
2023/11/22 14:41:03;;;;;;;14.05;7.75;;;3.10;99.90;;;;;;5018220;28;20038;-76